createdAt,value
2022-11-07T00:01:45.884Z,100481.56
2022-11-07T00:04:12.773Z,100483.66
2022-11-07T00:06:39.653Z,100482.03
2022-11-07T00:09:06.597Z,100483.63
2022-11-07T00:11:33.875Z,100480.91
2022-11-07T00:14:00.588Z,100488.09
2022-11-07T00:16:29.063Z,100488.34
2022-11-07T00:18:56.023Z,100498.16
2022-11-07T00:21:22.814Z,100493.38
2022-11-07T00:23:49.668Z,100493.81
2022-11-07T00:26:16.904Z,100500.63
2022-11-07T00:28:44.478Z,100497.44
2022-11-07T00:31:12.871Z,100491.09
2022-11-07T00:33:40.452Z,100486.75
2022-11-07T00:36:08.276Z,100498.94
2022-11-07T00:38:35.680Z,100503.38
2022-11-07T00:41:05.352Z,100498.03
2022-11-07T00:43:32.246Z,100504.63
2022-11-07T00:46:01.244Z,100508.59
2022-11-07T00:48:28.832Z,100515.00
2022-11-07T00:50:55.893Z,100519.59
2022-11-07T00:53:22.767Z,100518.56
2022-11-07T00:55:49.738Z,100522.59
2022-11-07T00:58:17.352Z,100506.25
2022-11-07T01:00:44.507Z,100518.06
2022-11-07T01:03:30.042Z,100524.47
2022-11-07T01:05:59.388Z,100523.06
2022-11-07T01:08:26.920Z,100527.84
2022-11-07T01:10:54.437Z,100522.91
2022-11-07T01:13:21.800Z,100526.78
2022-11-07T01:15:48.762Z,100522.66
2022-11-07T01:18:15.599Z,100530.38
2022-11-07T01:20:43.054Z,100535.28
2022-11-07T01:23:10.275Z,100543.41
2022-11-07T01:25:38.322Z,100543.03
2022-11-07T01:28:07.133Z,100534.41
2022-11-07T01:30:34.197Z,100538.66
2022-11-07T01:33:01.360Z,100526.72
2022-11-07T01:35:28.196Z,100532.94
2022-11-07T01:37:55.083Z,100541.25
2022-11-07T01:40:21.970Z,100534.53
2022-11-07T01:42:48.809Z,100539.31
2022-11-07T01:45:22.189Z,100536.59
2022-11-07T01:47:49.459Z,100527.50
2022-11-07T01:50:16.564Z,100530.25
2022-11-07T01:52:45.269Z,100534.69
2022-11-07T01:55:23.848Z,100528.28
2022-11-07T01:57:55.155Z,100533.66
2022-11-07T02:00:22.875Z,100534.78
2022-11-07T02:02:54.751Z,100532.09
2022-11-07T02:05:27.100Z,100530.47
2022-11-07T02:07:54.184Z,100523.47
2022-11-07T02:10:21.142Z,100520.06
2022-11-07T02:12:48.004Z,100531.41
2022-11-07T02:15:14.715Z,100531.41
2022-11-07T02:17:41.535Z,100523.78
2022-11-07T02:20:08.680Z,100523.09
2022-11-07T02:23:00.249Z,100521.19
2022-11-07T02:25:27.028Z,100524.41
2022-11-07T02:28:00.163Z,100531.78
2022-11-07T02:30:30.153Z,100526.91
2022-11-07T02:32:57.144Z,100529.53
2022-11-07T02:35:39.110Z,100536.16
2022-11-07T02:38:35.966Z,100528.28
2022-11-07T02:41:22.007Z,100527.84
2022-11-07T02:43:53.027Z,100519.88
2022-11-07T02:46:22.552Z,100524.66
2022-11-07T02:48:55.386Z,100515.69
2022-11-07T02:51:22.216Z,100515.44
2022-11-07T02:53:48.970Z,100528.78
2022-11-07T02:56:15.702Z,100528.28
2022-11-07T02:58:42.800Z,100534.03
2022-11-07T03:01:09.732Z,100529.66
2022-11-07T03:03:39.167Z,100516.94
2022-11-07T03:06:07.826Z,100532.59
2022-11-07T03:08:34.849Z,100524.16
2022-11-07T03:11:02.405Z,100533.41
2022-11-07T03:13:29.355Z,100538.75
2022-11-07T03:15:56.721Z,100530.19
2022-11-07T03:18:24.399Z,100532.78
2022-11-07T03:20:51.310Z,100529.91
2022-11-07T03:23:18.284Z,100543.50
2022-11-07T03:25:45.055Z,100548.19
2022-11-07T03:28:11.881Z,100529.91
2022-11-07T03:30:38.690Z,100533.53
2022-11-07T03:33:05.759Z,100530.56
2022-11-07T03:35:32.709Z,100542.28
2022-11-07T03:37:59.537Z,100526.53
2022-11-07T03:40:26.391Z,100533.94
2022-11-07T03:42:53.233Z,100532.75
2022-11-07T03:45:20.080Z,100537.84
2022-11-07T03:47:47.760Z,100529.78
2022-11-07T03:50:19.995Z,100545.38
2022-11-07T03:52:47.895Z,100547.81
2022-11-07T03:55:21.111Z,100553.31
2022-11-07T03:57:48.133Z,100543.25
2022-11-07T04:00:16.023Z,100533.59
2022-11-07T04:02:43.845Z,100540.91
2022-11-07T04:05:11.837Z,100539.16
2022-11-07T04:07:38.691Z,100537.00
2022-11-07T04:10:05.916Z,100530.94
2022-11-07T04:12:51.157Z,100542.09
2022-11-07T04:15:36.789Z,100544.47
2022-11-07T04:18:03.870Z,100543.41
2022-11-07T04:20:30.866Z,100533.50
2022-11-07T04:22:57.836Z,100546.22
2022-11-07T04:25:44.564Z,100538.75
2022-11-07T04:28:11.653Z,100552.97
2022-11-07T04:30:38.779Z,100551.41
2022-11-07T04:33:05.742Z,100548.00
2022-11-07T04:35:33.557Z,100550.59
2022-11-07T04:38:01.093Z,100547.56
2022-11-07T04:40:29.422Z,100557.41
2022-11-07T04:42:56.580Z,100554.84
2022-11-07T04:45:23.552Z,100558.25
2022-11-07T04:47:50.467Z,100558.97
2022-11-07T04:50:18.935Z,100560.06
2022-11-07T04:52:47.215Z,100567.66
2022-11-07T04:55:22.770Z,100557.97
2022-11-07T04:57:49.814Z,100558.19
2022-11-07T05:00:18.199Z,100559.59
2022-11-07T05:02:45.989Z,100556.94
2022-11-07T05:05:12.966Z,100566.38
2022-11-07T05:07:40.929Z,100568.16
2022-11-07T05:10:12.298Z,100556.16
2022-11-07T05:12:39.324Z,100567.03
2022-11-07T05:15:07.297Z,100563.88
2022-11-07T05:17:34.239Z,100558.44
2022-11-07T05:20:01.089Z,100552.06
2022-11-07T05:22:46.449Z,100555.06
2022-11-07T05:25:13.410Z,100563.66
2022-11-07T05:27:40.308Z,100550.63
2022-11-07T05:30:07.638Z,100554.22
2022-11-07T05:32:38.213Z,100549.78
2022-11-07T05:35:05.988Z,100549.41
2022-11-07T05:37:33.065Z,100556.19
2022-11-07T05:39:59.842Z,100555.72
2022-11-07T05:42:26.633Z,100548.56
2022-11-07T05:44:53.324Z,100553.56
2022-11-07T05:47:20.202Z,100543.06
2022-11-07T05:49:47.052Z,100556.97
2022-11-07T05:52:13.981Z,100558.91
2022-11-07T05:54:40.829Z,100561.75
2022-11-07T05:57:07.672Z,100561.19
2022-11-07T05:59:34.434Z,100564.44
2022-11-07T06:02:01.210Z,100564.88
2022-11-07T06:04:28.121Z,100575.66
2022-11-07T06:06:54.978Z,100579.34
2022-11-07T06:09:21.808Z,100564.06
2022-11-07T06:11:48.486Z,100578.47
2022-11-07T06:14:15.337Z,100579.06
2022-11-07T06:16:42.045Z,100568.56
2022-11-07T06:19:08.852Z,100576.69
2022-11-07T06:21:35.627Z,100579.97
2022-11-07T06:24:03.187Z,100589.72
2022-11-07T06:26:30.347Z,100593.91
2022-11-07T06:28:58.193Z,100590.75
2022-11-07T06:31:25.041Z,100599.34
2022-11-07T06:33:52.082Z,100603.22
2022-11-07T06:36:18.932Z,100608.50
2022-11-07T06:38:45.871Z,100604.44
2022-11-07T06:41:14.269Z,100605.00
2022-11-07T06:43:41.418Z,100606.59
2022-11-07T06:46:10.996Z,100602.34
2022-11-07T06:48:38.310Z,100612.09
2022-11-07T06:51:06.101Z,100620.13
2022-11-07T06:53:32.995Z,100622.72
2022-11-07T06:56:00.966Z,100619.69
2022-11-07T06:58:27.854Z,100620.13
2022-11-07T07:00:58.670Z,100624.22
2022-11-07T07:03:25.932Z,100624.75
2022-11-07T07:05:52.674Z,100625.59
2022-11-07T07:08:23.362Z,100625.03
2022-11-07T07:10:50.238Z,100625.69
2022-11-07T07:13:17.228Z,100636.00
2022-11-07T07:15:52.892Z,100641.25
2022-11-07T07:18:20.555Z,100635.97
2022-11-07T07:20:51.026Z,100640.59
2022-11-07T07:23:19.464Z,100632.69
2022-11-07T07:25:47.227Z,100639.31
2022-11-07T07:28:14.278Z,100644.09
2022-11-07T07:30:45.956Z,100640.59
2022-11-07T07:33:17.974Z,100642.69
2022-11-07T07:35:44.947Z,100646.34
2022-11-07T07:38:12.513Z,100646.88
2022-11-07T07:40:39.258Z,100640.41
2022-11-07T07:43:06.207Z,100642.31
2022-11-07T07:45:32.994Z,100636.75
2022-11-07T07:48:02.406Z,100656.97
2022-11-07T07:50:29.301Z,100644.25
2022-11-07T07:53:02.495Z,100645.56
2022-11-07T07:55:31.593Z,100657.47
2022-11-07T07:57:58.357Z,100659.16
2022-11-07T08:00:25.236Z,100655.88
2022-11-07T08:02:51.974Z,100655.19
2022-11-07T08:05:19.067Z,100654.22
2022-11-07T08:07:49.488Z,100661.69
2022-11-07T08:13:04.191Z,100670.41
2022-11-07T08:15:31.284Z,100678.09
2022-11-07T08:18:02.259Z,100672.09
2022-11-07T08:20:29.806Z,100674.56
2022-11-07T08:23:16.973Z,100670.28
2022-11-07T08:25:58.368Z,100677.44
2022-11-07T08:28:27.265Z,100671.88
2022-11-07T08:30:58.484Z,100677.22
2022-11-07T08:33:25.580Z,100692.38
2022-11-07T08:35:57.870Z,100682.38
2022-11-07T08:38:24.672Z,100679.38
2022-11-07T08:41:02.808Z,100680.53
2022-11-07T08:43:29.717Z,100685.41
2022-11-07T08:45:56.708Z,100686.19
2022-11-07T08:48:23.831Z,100685.41
2022-11-07T08:50:54.857Z,100683.59
2022-11-07T08:53:22.444Z,100696.88
2022-11-07T08:55:49.356Z,100690.50
2022-11-07T08:58:19.321Z,100698.44
2022-11-07T09:00:55.471Z,100689.13
2022-11-07T09:03:53.241Z,100698.56
2022-11-07T09:06:33.290Z,100708.06
2022-11-07T09:09:11.593Z,100697.56
2022-11-07T09:11:43.034Z,100704.91
2022-11-07T09:14:20.236Z,100699.03
2022-11-07T09:20:14.077Z,100705.03
2022-11-07T09:22:45.575Z,100706.50
2022-11-07T09:25:12.960Z,100704.50
2022-11-07T09:27:43.188Z,100708.34
2022-11-07T09:30:10.627Z,100710.31
2022-11-07T09:32:44.994Z,100712.78
2022-11-07T09:35:13.312Z,100711.16
2022-11-07T09:37:47.031Z,100711.69
2022-11-07T09:40:19.968Z,100713.03
2022-11-07T09:42:55.780Z,100720.63
2022-11-07T09:45:29.790Z,100709.31
2022-11-07T09:48:16.032Z,100713.69
2022-11-07T09:51:06.203Z,100728.16
2022-11-07T09:54:07.483Z,100732.75
2022-11-07T09:56:37.202Z,100735.09
2022-11-07T09:59:14.053Z,100747.78
2022-11-07T10:01:41.864Z,100746.03
2022-11-07T10:04:24.729Z,100747.88
2022-11-07T10:07:17.806Z,100748.75
2022-11-07T10:09:58.640Z,100741.06
2022-11-07T10:12:40.391Z,100746.78
2022-11-07T10:15:34.493Z,100750.84
2022-11-07T10:18:17.758Z,100750.94
2022-11-07T10:24:23.323Z,100748.88
2022-11-07T10:26:50.291Z,100752.97
2022-11-07T10:29:22.193Z,100749.22
2022-11-07T10:31:56.254Z,100753.84
2022-11-07T10:34:29.255Z,100761.53
2022-11-07T10:36:56.124Z,100755.09
2022-11-07T10:39:32.962Z,100760.44
2022-11-07T10:42:11.696Z,100759.00
2022-11-07T10:44:44.172Z,100755.16
2022-11-07T10:47:30.804Z,100758.13
2022-11-07T10:50:07.104Z,100752.34
2022-11-07T10:52:42.168Z,100754.22
2022-11-07T10:55:23.854Z,100750.78
2022-11-07T10:57:54.766Z,100740.25
2022-11-07T11:03:02.829Z,100725.50
2022-11-07T11:05:44.292Z,100736.31
2022-11-07T11:08:32.262Z,100734.97
2022-11-07T11:10:59.582Z,100725.84
2022-11-07T11:13:37.220Z,100732.09
2022-11-07T11:16:25.715Z,100738.94
2022-11-07T11:18:57.932Z,100747.84
2022-11-07T11:21:26.140Z,100741.38
2022-11-07T11:23:54.912Z,100737.63
2022-11-07T11:26:32.521Z,100743.88
2022-11-07T11:29:23.189Z,100736.53
2022-11-07T11:31:52.361Z,100731.13
2022-11-07T11:34:22.443Z,100734.63
2022-11-07T11:36:57.690Z,100745.94
2022-11-07T11:39:34.223Z,100737.25
2022-11-07T11:42:07.908Z,100739.00
2022-11-07T11:44:42.037Z,100733.47
2022-11-07T11:47:37.472Z,100730.56
2022-11-07T11:50:18.987Z,100741.16
2022-11-07T11:52:50.393Z,100744.72
2022-11-07T11:55:22.676Z,100745.63
2022-11-07T11:58:32.037Z,100745.63
2022-11-07T12:01:42.980Z,100741.16
2022-11-07T12:04:37.528Z,100736.19
2022-11-07T12:07:13.349Z,100746.16
2022-11-07T12:09:48.759Z,100736.50
2022-11-07T12:12:21.839Z,100728.50
2022-11-07T12:14:57.876Z,100746.69
2022-11-07T12:17:30.882Z,100728.19
2022-11-07T12:20:22.384Z,100725.56
2022-11-07T12:23:25.387Z,100730.59
2022-11-07T12:26:09.273Z,100722.13
2022-11-07T12:29:01.815Z,100728.34
2022-11-07T12:31:47.995Z,100725.34
2022-11-07T12:34:24.156Z,100719.63
2022-11-07T12:37:22.456Z,100719.19
2022-11-07T12:40:06.402Z,100711.09
2022-11-07T12:42:55.967Z,100721.25
2022-11-07T12:45:51.396Z,100719.75
2022-11-07T12:48:38.407Z,100723.00
2022-11-07T12:51:36.048Z,100715.16
2022-11-07T12:54:37.961Z,100717.19
2022-11-07T12:57:23.150Z,100707.22
2022-11-07T13:00:27.583Z,100713.59
2022-11-07T13:03:16.003Z,100720.34
2022-11-07T13:06:28.067Z,100709.88
2022-11-07T13:09:28.242Z,100706.97
2022-11-07T13:12:28.741Z,100705.28
2022-11-07T13:14:59.762Z,100701.94
2022-11-07T13:17:40.410Z,100697.09
2022-11-07T13:20:29.130Z,100704.41
2022-11-07T13:23:03.981Z,100701.59
2022-11-07T13:25:44.523Z,100699.97
2022-11-07T13:29:01.542Z,100689.44
2022-11-07T13:31:39.995Z,100695.16
2022-11-07T13:34:20.523Z,100698.25
2022-11-07T13:36:49.607Z,100696.91
2022-11-07T13:39:22.898Z,100680.97
2022-11-07T13:42:07.758Z,100689.31
2022-11-07T13:44:45.011Z,100684.03
2022-11-07T13:50:18.430Z,100694.34
2022-11-07T13:52:54.051Z,100692.50
2022-11-07T13:55:25.313Z,100687.13
2022-11-07T13:58:16.167Z,100712.50
2022-11-07T14:00:52.967Z,100693.03
2022-11-07T14:03:35.771Z,100690.53
2022-11-07T14:06:10.796Z,100685.56
2022-11-07T14:08:42.892Z,100700.63
2022-11-07T14:11:24.401Z,100699.31
2022-11-07T14:14:19.713Z,100692.13
2022-11-07T14:16:59.145Z,100698.06
2022-11-07T14:19:32.537Z,100680.38
2022-11-07T14:22:02.326Z,100694.00
2022-11-07T14:24:35.921Z,100677.34
2022-11-07T14:27:13.364Z,100685.72
2022-11-07T14:29:52.753Z,100685.56
2022-11-07T14:32:26.985Z,100683.28
2022-11-07T14:35:00.383Z,100688.28
2022-11-07T14:37:31.265Z,100695.59
2022-11-07T14:40:07.566Z,100685.56
2022-11-07T14:42:41.649Z,100686.25
2022-11-07T14:45:23.805Z,100698.50
2022-11-07T14:48:17.318Z,100699.44
2022-11-07T14:50:48.748Z,100703.97
2022-11-07T14:53:45.289Z,100701.41
2022-11-07T14:56:18.982Z,100687.69
2022-11-07T14:58:50.390Z,100703.78
2022-11-07T15:01:33.943Z,100697.16
2022-11-07T15:04:47.778Z,100698.78
2022-11-07T15:07:34.328Z,100688.09
2022-11-07T15:10:46.541Z,100697.88
2022-11-07T15:13:49.217Z,100686.78
2022-11-07T15:16:24.150Z,100697.69
2022-11-07T15:19:17.847Z,100693.13
2022-11-07T15:22:21.034Z,100709.69
2022-11-07T15:28:01.853Z,100696.72
2022-11-07T15:30:43.328Z,100690.81
2022-11-07T15:33:13.839Z,100709.44
2022-11-07T15:35:44.693Z,100706.69
2022-11-07T15:39:02.903Z,100694.72
2022-11-07T15:47:53.506Z,100686.69
2022-11-07T15:50:29.231Z,100701.84
2022-11-07T15:53:08.186Z,100692.13
2022-11-07T15:55:39.464Z,100691.56
2022-11-07T16:01:25.885Z,100688.28
2022-11-07T16:04:12.049Z,100696.75
2022-11-07T16:06:45.817Z,100710.22
2022-11-07T16:12:14.000Z,100697.53
2022-11-07T16:14:44.700Z,100690.53
2022-11-07T16:17:17.361Z,100694.06
2022-11-07T16:19:48.586Z,100700.63
2022-11-07T16:22:16.488Z,100706.75
2022-11-07T16:24:49.535Z,100713.13
2022-11-07T16:27:18.947Z,100713.31
2022-11-07T16:29:47.711Z,100715.41
2022-11-07T16:32:17.906Z,100712.06
2022-11-07T16:34:47.214Z,100718.44
2022-11-07T16:37:15.731Z,100717.97
2022-11-07T16:39:43.254Z,100719.94
2022-11-07T16:42:16.439Z,100712.34
2022-11-07T16:44:44.561Z,100712.09
2022-11-07T16:47:16.469Z,100704.84
2022-11-07T16:49:44.312Z,100708.56
2022-11-07T16:52:19.044Z,100716.66
2022-11-07T16:54:50.128Z,100718.69
2022-11-07T16:57:18.906Z,100726.19
2022-11-07T16:59:46.418Z,100725.91
2022-11-07T17:02:26.140Z,100731.72
2022-11-07T17:04:54.450Z,100732.53
2022-11-07T17:07:23.955Z,100734.25
2022-11-07T17:09:52.004Z,100722.13
2022-11-07T17:12:24.391Z,100724.84
2022-11-07T17:14:52.732Z,100734.38
2022-11-07T17:17:20.908Z,100732.25
2022-11-07T17:19:49.007Z,100731.00
2022-11-07T17:22:17.691Z,100742.16
2022-11-07T17:24:45.241Z,100733.16
2022-11-07T17:27:24.030Z,100727.09
2022-11-07T17:29:52.473Z,100723.34
2022-11-07T17:32:20.080Z,100716.44
2022-11-07T17:34:59.232Z,100719.88
2022-11-07T17:37:32.334Z,100724.41
2022-11-07T17:39:59.275Z,100714.88
2022-11-07T17:42:26.096Z,100723.41
2022-11-07T17:44:53.074Z,100721.66
2022-11-07T17:47:28.245Z,100721.47
2022-11-07T17:49:55.915Z,100718.47
2022-11-07T17:52:23.392Z,100724.28
2022-11-07T17:54:50.956Z,100725.09
2022-11-07T17:57:17.976Z,100721.13
2022-11-07T17:59:46.101Z,100731.44
2022-11-07T18:02:15.295Z,100721.91
2022-11-07T18:04:42.583Z,100725.50
2022-11-07T18:07:09.923Z,100731.47
2022-11-07T18:09:37.029Z,100729.66
2022-11-07T18:12:04.477Z,100728.53
2022-11-07T18:14:31.415Z,100714.06
2022-11-07T18:16:58.300Z,100727.66
2022-11-07T18:19:25.361Z,100719.66
2022-11-07T18:21:52.359Z,100727.53
2022-11-07T18:24:19.329Z,100732.31
2022-11-07T18:26:46.201Z,100725.75
2022-11-07T18:29:14.039Z,100720.94
2022-11-07T18:31:41.617Z,100728.44
2022-11-07T18:34:11.525Z,100730.72
2022-11-07T18:36:39.921Z,100723.63
2022-11-07T18:39:17.850Z,100711.97
2022-11-07T18:41:45.164Z,100725.00
2022-11-07T18:44:12.317Z,100722.03
2022-11-07T18:46:39.382Z,100728.91
2022-11-07T18:49:06.645Z,100725.41
2022-11-07T18:51:34.433Z,100730.63
2022-11-07T18:54:03.045Z,100730.84
2022-11-07T18:56:30.377Z,100728.22
2022-11-07T18:58:57.625Z,100732.31
2022-11-07T19:01:28.507Z,100725.81
2022-11-07T19:04:00.007Z,100729.59
2022-11-07T19:06:33.709Z,100737.50
2022-11-07T19:09:03.858Z,100740.28
2022-11-07T19:11:31.749Z,100730.94
2022-11-07T19:14:03.220Z,100735.81
2022-11-07T19:16:30.301Z,100737.44
2022-11-07T19:18:59.053Z,100735.00
2022-11-07T19:21:25.890Z,100732.78
2022-11-07T19:23:52.774Z,100735.34
2022-11-07T19:26:20.105Z,100736.03
2022-11-07T19:29:24.447Z,100733.19
2022-11-07T19:35:12.675Z,100732.31
2022-11-07T19:37:39.671Z,100725.38
2022-11-07T19:40:07.374Z,100725.38
2022-11-07T19:42:34.607Z,100727.03
2022-11-07T19:45:01.918Z,100730.84
2022-11-07T19:47:30.208Z,100734.84
2022-11-07T19:49:57.193Z,100729.63
2022-11-07T19:52:24.472Z,100729.47
2022-11-07T19:54:51.685Z,100727.38
2022-11-07T19:57:18.707Z,100728.13
2022-11-07T19:59:54.852Z,100731.56
2022-11-07T20:02:34.564Z,100722.75
2022-11-07T20:05:10.928Z,100722.16
2022-11-07T20:07:42.017Z,100728.66
2022-11-07T20:10:14.688Z,100733.06
2022-11-07T20:12:41.664Z,100735.19
2022-11-07T20:15:09.279Z,100734.72
2022-11-07T20:17:36.248Z,100741.63
2022-11-07T20:20:07.206Z,100742.66
2022-11-07T20:22:36.613Z,100738.72
2022-11-07T20:25:05.577Z,100741.84
2022-11-07T20:34:05.140Z,100735.41
2022-11-07T20:36:36.861Z,100742.22
2022-11-07T20:39:07.194Z,100738.19
2022-11-07T20:41:35.369Z,100747.97
2022-11-07T20:44:06.341Z,100741.16
2022-11-07T20:46:36.078Z,100745.25
2022-11-07T20:49:07.291Z,100740.28
2022-11-07T20:51:35.643Z,100739.28
2022-11-07T20:54:03.057Z,100735.28
2022-11-07T20:56:31.467Z,100731.84
2022-11-07T20:58:59.863Z,100727.94
2022-11-07T21:01:37.497Z,100715.22
2022-11-07T21:04:08.162Z,100727.25
2022-11-07T21:06:37.928Z,100730.22
2022-11-07T21:09:06.093Z,100723.28
2022-11-07T21:11:36.849Z,100738.03
2022-11-07T21:14:06.212Z,100724.47
2022-11-07T21:16:35.840Z,100728.00
2022-11-07T21:19:05.871Z,100725.75
2022-11-07T21:21:33.978Z,100734.25
2022-11-07T21:24:01.439Z,100731.25
2022-11-07T21:26:37.017Z,100736.13
2022-11-07T21:29:08.829Z,100730.41
2022-11-07T21:31:40.712Z,100724.38
2022-11-07T21:34:12.038Z,100722.28
2022-11-07T21:36:41.169Z,100720.50
2022-11-07T21:39:08.157Z,100723.28
2022-11-07T21:41:35.806Z,100707.25
2022-11-07T21:44:03.407Z,100704.00
2022-11-07T21:46:36.157Z,100712.16
2022-11-07T21:49:04.978Z,100704.41
2022-11-07T21:51:34.558Z,100704.16
2022-11-07T21:54:03.895Z,100704.25
2022-11-07T21:56:32.547Z,100699.13
2022-11-07T21:59:01.634Z,100693.06
2022-11-07T22:01:30.833Z,100687.53
2022-11-07T22:04:06.641Z,100687.88
2022-11-07T22:06:36.210Z,100686.34
2022-11-07T22:09:09.661Z,100680.63
2022-11-07T22:11:40.334Z,100670.88
2022-11-07T22:14:07.422Z,100676.88
2022-11-07T22:16:36.809Z,100668.22
2022-11-07T22:19:06.151Z,100670.94
2022-11-07T22:21:35.496Z,100667.69
2022-11-07T22:24:02.300Z,100672.72
2022-11-07T22:26:29.374Z,100662.22
2022-11-07T22:28:56.389Z,100674.00
2022-11-07T22:31:26.852Z,100657.34
2022-11-07T22:33:55.228Z,100656.78
2022-11-07T22:36:23.159Z,100656.28
2022-11-07T22:38:51.260Z,100657.59
2022-11-07T22:41:24.137Z,100646.78
2022-11-07T22:43:56.442Z,100651.59
2022-11-07T22:46:25.773Z,100645.94
2022-11-07T22:48:53.546Z,100658.44
2022-11-07T22:51:26.111Z,100659.44
2022-11-07T22:53:57.965Z,100644.47
2022-11-07T22:56:25.166Z,100646.66
2022-11-07T22:58:52.009Z,100643.25
2022-11-07T23:01:21.788Z,100649.91
2022-11-07T23:03:49.091Z,100644.47
2022-11-07T23:06:16.939Z,100641.03
2022-11-07T23:08:44.398Z,100650.25
2022-11-07T23:14:05.479Z,100642.06
2022-11-07T23:16:38.670Z,100628.69
2022-11-07T23:19:08.146Z,100629.38
2022-11-07T23:21:36.046Z,100631.72
2022-11-07T23:24:03.962Z,100626.63
2022-11-07T23:26:34.032Z,100626.41
2022-11-07T23:29:15.924Z,100628.19
2022-11-07T23:31:45.739Z,100630.91
2022-11-07T23:34:12.830Z,100630.63
2022-11-07T23:36:44.747Z,100630.53
2022-11-07T23:39:17.563Z,100627.00
2022-11-07T23:41:45.035Z,100623.19
2022-11-07T23:44:12.322Z,100618.88
2022-11-07T23:46:58.286Z,100615.56
2022-11-07T23:49:57.134Z,100615.66
2022-11-07T23:52:23.871Z,100608.00
2022-11-07T23:55:09.123Z,100606.94
2022-11-07T23:57:57.123Z,100605.97
